sensor_id;sensor_type;location;lat;lon;timestamp;P1;durP1;ratioP1;P2;durP2;ratioP2
39050;SDS011;24805;55.852;37.644;2022-09-09T00:09:31;2.67;;;1.38;;
39050;SDS011;24805;55.852;37.644;2022-09-09T00:25:19;3.95;;;1.30;;
39050;SDS011;24805;55.852;37.644;2022-09-09T00:30:43;4.05;;;1.90;;
39050;SDS011;24805;55.852;37.644;2022-09-09T00:35:59;4.30;;;1.83;;
39050;SDS011;24805;55.852;37.644;2022-09-09T00:41:07;2.45;;;1.42;;
39050;SDS011;24805;55.852;37.644;2022-09-09T01:02:31;3.17;;;1.90;;
39050;SDS011;24805;55.852;37.644;2022-09-09T01:07:42;3.67;;;1.30;;
39050;SDS011;24805;55.852;37.644;2022-09-09T01:12:49;3.70;;;1.65;;
39050;SDS011;24805;55.852;37.644;2022-09-09T01:18:00;6.00;;;1.70;;
39050;SDS011;24805;55.852;37.644;2022-09-09T01:23:20;2.90;;;1.63;;
39050;SDS011;24805;55.852;37.644;2022-09-09T01:29:06;3.40;;;1.63;;
39050;SDS011;24805;55.852;37.644;2022-09-09T01:34:15;4.57;;;1.77;;
39050;SDS011;24805;55.852;37.644;2022-09-09T01:39:18;2.95;;;1.83;;
39050;SDS011;24805;55.852;37.644;2022-09-09T01:44:30;4.40;;;1.67;;
39050;SDS011;24805;55.852;37.644;2022-09-09T01:49:34;3.05;;;1.55;;
39050;SDS011;24805;55.852;37.644;2022-09-09T01:54:44;2.28;;;1.20;;
39050;SDS011;24805;55.852;37.644;2022-09-09T02:21:11;5.65;;;1.65;;
39050;SDS011;24805;55.852;37.644;2022-09-09T02:26:15;2.38;;;1.48;;
39050;SDS011;24805;55.852;37.644;2022-09-09T02:31:26;3.25;;;1.58;;
39050;SDS011;24805;55.852;37.644;2022-09-09T02:36:34;3.38;;;1.30;;
39050;SDS011;24805;55.852;37.644;2022-09-09T02:41:39;2.42;;;1.50;;
39050;SDS011;24805;55.852;37.644;2022-09-09T02:52:06;2.30;;;1.58;;
39050;SDS011;24805;55.852;37.644;2022-09-09T02:57:12;3.13;;;1.55;;
39050;SDS011;24805;55.852;37.644;2022-09-09T03:02:21;2.15;;;1.30;;
39050;SDS011;24805;55.852;37.644;2022-09-09T03:07:28;2.30;;;1.30;;
39050;SDS011;24805;55.852;37.644;2022-09-09T03:12:31;2.55;;;1.60;;
39050;SDS011;24805;55.852;37.644;2022-09-09T03:17:35;2.00;;;1.35;;
39050;SDS011;24805;55.852;37.644;2022-09-09T03:22:38;2.00;;;1.27;;
39050;SDS011;24805;55.852;37.644;2022-09-09T03:27:40;3.47;;;1.50;;
39050;SDS011;24805;55.852;37.644;2022-09-09T03:32:42;2.33;;;1.40;;
39050;SDS011;24805;55.852;37.644;2022-09-09T03:37:49;3.75;;;1.42;;
39050;SDS011;24805;55.852;37.644;2022-09-09T03:42:51;2.17;;;1.35;;
39050;SDS011;24805;55.852;37.644;2022-09-09T03:47:54;5.03;;;1.42;;
39050;SDS011;24805;55.852;37.644;2022-09-09T03:57:58;4.32;;;1.73;;
39050;SDS011;24805;55.852;37.644;2022-09-09T04:03:03;2.40;;;1.48;;
39050;SDS011;24805;55.852;37.644;2022-09-09T04:08:08;2.22;;;1.33;;
39050;SDS011;24805;55.852;37.644;2022-09-09T04:13:10;4.07;;;1.40;;
39050;SDS011;24805;55.852;37.644;2022-09-09T04:18:14;4.10;;;1.58;;
39050;SDS011;24805;55.852;37.644;2022-09-09T04:23:21;3.55;;;1.40;;
39050;SDS011;24805;55.852;37.644;2022-09-09T04:28:25;1.77;;;1.30;;
39050;SDS011;24805;55.852;37.644;2022-09-09T04:33:29;2.88;;;1.20;;
39050;SDS011;24805;55.852;37.644;2022-09-09T04:38:31;1.90;;;1.58;;
39050;SDS011;24805;55.852;37.644;2022-09-09T04:43:35;3.22;;;1.42;;
39050;SDS011;24805;55.852;37.644;2022-09-09T04:48:39;3.25;;;1.30;;
39050;SDS011;24805;55.852;37.644;2022-09-09T04:53:43;4.38;;;1.48;;
39050;SDS011;24805;55.852;37.644;2022-09-09T04:58:47;1.60;;;0.95;;
39050;SDS011;24805;55.852;37.644;2022-09-09T05:03:50;2.22;;;0.98;;
39050;SDS011;24805;55.852;37.644;2022-09-09T05:08:56;2.15;;;1.05;;
39050;SDS011;24805;55.852;37.644;2022-09-09T05:14:02;2.42;;;0.73;;
39050;SDS011;24805;55.852;37.644;2022-09-09T05:19:06;1.60;;;0.52;;
39050;SDS011;24805;55.852;37.644;2022-09-09T05:24:21;1.38;;;0.63;;
39050;SDS011;24805;55.852;37.644;2022-09-09T05:29:28;2.25;;;1.10;;
39050;SDS011;24805;55.852;37.644;2022-09-09T05:34:31;2.65;;;0.80;;
39050;SDS011;24805;55.852;37.644;2022-09-09T05:39:35;2.40;;;0.60;;
39050;SDS011;24805;55.852;37.644;2022-09-09T05:44:38;1.05;;;0.55;;
39050;SDS011;24805;55.852;37.644;2022-09-09T05:49:41;2.22;;;0.50;;
39050;SDS011;24805;55.852;37.644;2022-09-09T05:54:44;5.38;;;0.60;;
39050;SDS011;24805;55.852;37.644;2022-09-09T05:59:46;3.35;;;0.60;;
39050;SDS011;24805;55.852;37.644;2022-09-09T06:04:48;1.52;;;0.57;;
39050;SDS011;24805;55.852;37.644;2022-09-09T06:09:50;1.60;;;0.20;;
39050;SDS011;24805;55.852;37.644;2022-09-09T06:14:53;1.17;;;0.30;;
39050;SDS011;24805;55.852;37.644;2022-09-09T06:19:55;1.65;;;0.30;;
39050;SDS011;24805;55.852;37.644;2022-09-09T06:24:57;1.65;;;0.20;;
39050;SDS011;24805;55.852;37.644;2022-09-09T06:30:00;1.10;;;0.20;;
39050;SDS011;24805;55.852;37.644;2022-09-09T06:35:04;2.00;;;0.38;;
39050;SDS011;24805;55.852;37.644;2022-09-09T06:40:07;0.57;;;0.30;;
39050;SDS011;24805;55.852;37.644;2022-09-09T06:45:11;3.03;;;1.70;;
39050;SDS011;24805;55.852;37.644;2022-09-09T06:50:22;0.88;;;0.30;;
39050;SDS011;24805;55.852;37.644;2022-09-09T06:55:24;1.38;;;0.20;;
39050;SDS011;24805;55.852;37.644;2022-09-09T07:00:27;0.73;;;0.17;;
39050;SDS011;24805;55.852;37.644;2022-09-09T07:05:30;0.75;;;0.20;;
39050;SDS011;24805;55.852;37.644;2022-09-09T07:10:32;0.70;;;0.20;;
39050;SDS011;24805;55.852;37.644;2022-09-09T07:15:36;1.85;;;0.20;;
39050;SDS011;24805;55.852;37.644;2022-09-09T07:20:39;2.53;;;0.20;;
39050;SDS011;24805;55.852;37.644;2022-09-09T07:25:44;0.65;;;0.10;;
39050;SDS011;24805;55.852;37.644;2022-09-09T07:30:58;0.85;;;0.20;;
39050;SDS011;24805;55.852;37.644;2022-09-09T07:41:36;1.58;;;0.10;;
39050;SDS011;24805;55.852;37.644;2022-09-09T07:46:41;0.95;;;0.10;;
39050;SDS011;24805;55.852;37.644;2022-09-09T07:51:45;1.05;;;0.13;;
39050;SDS011;24805;55.852;37.644;2022-09-09T07:56:50;2.47;;;0.10;;
39050;SDS011;24805;55.852;37.644;2022-09-09T08:01:56;2.75;;;0.20;;
39050;SDS011;24805;55.852;37.644;2022-09-09T08:07:02;1.88;;;0.40;;
39050;SDS011;24805;55.852;37.644;2022-09-09T08:12:11;3.65;;;0.30;;
39050;SDS011;24805;55.852;37.644;2022-09-09T08:17:14;1.30;;;0.10;;
39050;SDS011;24805;55.852;37.644;2022-09-09T08:22:17;0.93;;;0.10;;
39050;SDS011;24805;55.852;37.644;2022-09-09T08:27:20;0.40;;;0.10;;
39050;SDS011;24805;55.852;37.644;2022-09-09T08:32:22;0.40;;;0.20;;
39050;SDS011;24805;55.852;37.644;2022-09-09T08:37:24;3.95;;;0.20;;
39050;SDS011;24805;55.852;37.644;2022-09-09T08:53:11;1.58;;;0.15;;
39050;SDS011;24805;55.852;37.644;2022-09-09T08:58:25;0.52;;;0.10;;
39050;SDS011;24805;55.852;37.644;2022-09-09T09:15:09;0.50;;;0.10;;
39050;SDS011;24805;55.852;37.644;2022-09-09T09:20:21;2.90;;;0.10;;
39050;SDS011;24805;55.852;37.644;2022-09-09T09:25:34;0.60;;;0.20;;
39050;SDS011;24805;55.852;37.644;2022-09-09T09:30:42;0.25;;;0.10;;
39050;SDS011;24805;55.852;37.644;2022-09-09T09:35:57;0.65;;;0.20;;
39050;SDS011;24805;55.852;37.644;2022-09-09T09:41:02;0.30;;;0.10;;
39050;SDS011;24805;55.852;37.644;2022-09-09T09:46:16;0.38;;;0.10;;
39050;SDS011;24805;55.852;37.644;2022-09-09T09:51:22;3.65;;;0.35;;
39050;SDS011;24805;55.852;37.644;2022-09-09T09:56:27;0.73;;;0.10;;
39050;SDS011;24805;55.852;37.644;2022-09-09T10:01:38;0.10;;;0.10;;
39050;SDS011;24805;55.852;37.644;2022-09-09T10:06:44;1.33;;;0.10;;
39050;SDS011;24805;55.852;37.644;2022-09-09T10:11:49;0.47;;;0.08;;
39050;SDS011;24805;55.852;37.644;2022-09-09T10:17:01;2.67;;;0.25;;
39050;SDS011;24805;55.852;37.644;2022-09-09T10:27:51;1.06;;;0.16;;
39050;SDS011;24805;55.852;37.644;2022-09-09T10:38:20;3.13;;;0.30;;
39050;SDS011;24805;55.852;37.644;2022-09-09T10:59:26;1.48;;;0.10;;
39050;SDS011;24805;55.852;37.644;2022-09-09T11:09:45;0.60;;;0.20;;
39050;SDS011;24805;55.852;37.644;2022-09-09T11:14:57;0.47;;;0.15;;
39050;SDS011;24805;55.852;37.644;2022-09-09T11:20:06;1.98;;;0.20;;
39050;SDS011;24805;55.852;37.644;2022-09-09T11:25:17;2.20;;;0.10;;
39050;SDS011;24805;55.852;37.644;2022-09-09T11:41:13;2.90;;;0.20;;
39050;SDS011;24805;55.852;37.644;2022-09-09T11:46:22;0.63;;;0.20;;
39050;SDS011;24805;55.852;37.644;2022-09-09T11:51:37;2.05;;;0.20;;
39050;SDS011;24805;55.852;37.644;2022-09-09T11:56:45;3.50;;;0.30;;
39050;SDS011;24805;55.852;37.644;2022-09-09T12:01:55;4.38;;;0.40;;
39050;SDS011;24805;55.852;37.644;2022-09-09T12:12:35;2.58;;;0.57;;
39050;SDS011;24805;55.852;37.644;2022-09-09T12:17:45;0.90;;;0.30;;
39050;SDS011;24805;55.852;37.644;2022-09-09T12:33:10;2.20;;;0.30;;
39050;SDS011;24805;55.852;37.644;2022-09-09T12:38:26;0.95;;;0.22;;
39050;SDS011;24805;55.852;37.644;2022-09-09T12:43:32;1.23;;;0.30;;
39050;SDS011;24805;55.852;37.644;2022-09-09T12:48:35;7.03;;;0.95;;
39050;SDS011;24805;55.852;37.644;2022-09-09T12:53:40;1.88;;;0.43;;
39050;SDS011;24805;55.852;37.644;2022-09-09T12:58:44;1.50;;;0.30;;
39050;SDS011;24805;55.852;37.644;2022-09-09T13:03:49;3.85;;;0.47;;
39050;SDS011;24805;55.852;37.644;2022-09-09T13:08:51;2.53;;;0.40;;
39050;SDS011;24805;55.852;37.644;2022-09-09T13:13:55;1.15;;;0.30;;
39050;SDS011;24805;55.852;37.644;2022-09-09T13:19:06;0.50;;;0.20;;
39050;SDS011;24805;55.852;37.644;2022-09-09T13:24:33;1.00;;;0.25;;
39050;SDS011;24805;55.852;37.644;2022-09-09T13:29:36;0.68;;;0.28;;
39050;SDS011;24805;55.852;37.644;2022-09-09T13:34:39;0.45;;;0.10;;
39050;SDS011;24805;55.852;37.644;2022-09-09T13:39:50;1.58;;;0.20;;
39050;SDS011;24805;55.852;37.644;2022-09-09T13:44:56;1.90;;;0.28;;
39050;SDS011;24805;55.852;37.644;2022-09-09T13:55:26;1.95;;;0.20;;
39050;SDS011;24805;55.852;37.644;2022-09-09T14:00:30;0.90;;;0.30;;
39050;SDS011;24805;55.852;37.644;2022-09-09T14:05:33;1.05;;;0.45;;
39050;SDS011;24805;55.852;37.644;2022-09-09T14:10:35;0.80;;;0.20;;
39050;SDS011;24805;55.852;37.644;2022-09-09T14:15:38;1.80;;;0.30;;
39050;SDS011;24805;55.852;37.644;2022-09-09T14:20:40;1.90;;;0.40;;
39050;SDS011;24805;55.852;37.644;2022-09-09T14:25:43;0.70;;;0.22;;
39050;SDS011;24805;55.852;37.644;2022-09-09T14:30:45;0.90;;;0.30;;
39050;SDS011;24805;55.852;37.644;2022-09-09T14:35:48;1.88;;;0.40;;
39050;SDS011;24805;55.852;37.644;2022-09-09T14:40:56;1.73;;;0.30;;
39050;SDS011;24805;55.852;37.644;2022-09-09T14:46:06;1.50;;;0.30;;
39050;SDS011;24805;55.852;37.644;2022-09-09T14:51:12;2.58;;;0.40;;
39050;SDS011;24805;55.852;37.644;2022-09-09T14:56:18;2.40;;;0.40;;
39050;SDS011;24805;55.852;37.644;2022-09-09T15:01:23;0.88;;;0.50;;
39050;SDS011;24805;55.852;37.644;2022-09-09T15:06:30;2.10;;;0.50;;
39050;SDS011;24805;55.852;37.644;2022-09-09T15:11:35;1.98;;;0.60;;
39050;SDS011;24805;55.852;37.644;2022-09-09T15:16:41;2.45;;;0.50;;
39050;SDS011;24805;55.852;37.644;2022-09-09T15:26:46;3.05;;;0.70;;
39050;SDS011;24805;55.852;37.644;2022-09-09T15:31:48;4.55;;;1.10;;
39050;SDS011;24805;55.852;37.644;2022-09-09T15:36:50;3.38;;;0.80;;
39050;SDS011;24805;55.852;37.644;2022-09-09T15:41:53;2.72;;;0.80;;
39050;SDS011;24805;55.852;37.644;2022-09-09T15:46:55;4.85;;;0.98;;
39050;SDS011;24805;55.852;37.644;2022-09-09T15:51:58;5.20;;;1.27;;
39050;SDS011;24805;55.852;37.644;2022-09-09T15:57:05;2.78;;;1.27;;
39050;SDS011;24805;55.852;37.644;2022-09-09T16:02:09;3.83;;;1.25;;
39050;SDS011;24805;55.852;37.644;2022-09-09T16:07:12;5.10;;;1.40;;
39050;SDS011;24805;55.852;37.644;2022-09-09T16:12:15;6.47;;;3.30;;
39050;SDS011;24805;55.852;37.644;2022-09-09T16:17:17;4.13;;;1.23;;
39050;SDS011;24805;55.852;37.644;2022-09-09T16:22:22;4.28;;;1.48;;
39050;SDS011;24805;55.852;37.644;2022-09-09T16:27:25;5.25;;;1.58;;
39050;SDS011;24805;55.852;37.644;2022-09-09T16:37:29;8.05;;;1.92;;
39050;SDS011;24805;55.852;37.644;2022-09-09T16:42:31;4.13;;;2.17;;
39050;SDS011;24805;55.852;37.644;2022-09-09T16:47:40;7.72;;;3.70;;
39050;SDS011;24805;55.852;37.644;2022-09-09T16:57:44;7.45;;;2.88;;
39050;SDS011;24805;55.852;37.644;2022-09-09T17:02:46;5.45;;;3.13;;
39050;SDS011;24805;55.852;37.644;2022-09-09T17:07:49;5.53;;;2.70;;
39050;SDS011;24805;55.852;37.644;2022-09-09T17:12:51;7.38;;;2.88;;
39050;SDS011;24805;55.852;37.644;2022-09-09T17:17:53;6.07;;;3.20;;
39050;SDS011;24805;55.852;37.644;2022-09-09T17:22:56;6.13;;;3.72;;
39050;SDS011;24805;55.852;37.644;2022-09-09T17:33:01;5.80;;;3.22;;
39050;SDS011;24805;55.852;37.644;2022-09-09T17:38:05;5.63;;;2.67;;
39050;SDS011;24805;55.852;37.644;2022-09-09T17:48:10;4.57;;;3.00;;
39050;SDS011;24805;55.852;37.644;2022-09-09T17:53:12;5.05;;;3.13;;
39050;SDS011;24805;55.852;37.644;2022-09-09T18:08:19;6.57;;;3.95;;
39050;SDS011;24805;55.852;37.644;2022-09-09T18:13:22;9.18;;;3.90;;
39050;SDS011;24805;55.852;37.644;2022-09-09T18:18:25;7.55;;;3.63;;
39050;SDS011;24805;55.852;37.644;2022-09-09T18:23:28;9.68;;;3.35;;
39050;SDS011;24805;55.852;37.644;2022-09-09T18:28:31;7.60;;;3.42;;
39050;SDS011;24805;55.852;37.644;2022-09-09T18:38:38;7.28;;;4.82;;
39050;SDS011;24805;55.852;37.644;2022-09-09T18:48:43;8.00;;;3.40;;
39050;SDS011;24805;55.852;37.644;2022-09-09T18:53:51;7.28;;;3.15;;
39050;SDS011;24805;55.852;37.644;2022-09-09T18:58:57;7.22;;;2.80;;
39050;SDS011;24805;55.852;37.644;2022-09-09T19:04:02;8.18;;;3.38;;
39050;SDS011;24805;55.852;37.644;2022-09-09T19:09:10;6.63;;;3.88;;
39050;SDS011;24805;55.852;37.644;2022-09-09T19:14:14;9.18;;;3.38;;
39050;SDS011;24805;55.852;37.644;2022-09-09T19:19:21;8.13;;;3.47;;
39050;SDS011;24805;55.852;37.644;2022-09-09T19:24:27;6.65;;;2.90;;
39050;SDS011;24805;55.852;37.644;2022-09-09T19:29:33;8.93;;;4.07;;
39050;SDS011;24805;55.852;37.644;2022-09-09T19:34:36;8.93;;;3.75;;
39050;SDS011;24805;55.852;37.644;2022-09-09T19:44:41;8.48;;;3.83;;
39050;SDS011;24805;55.852;37.644;2022-09-09T19:54:48;9.40;;;4.43;;
39050;SDS011;24805;55.852;37.644;2022-09-09T20:04:52;5.82;;;3.63;;
39050;SDS011;24805;55.852;37.644;2022-09-09T20:09:54;8.30;;;3.60;;
39050;SDS011;24805;55.852;37.644;2022-09-09T20:14:57;7.72;;;3.67;;
39050;SDS011;24805;55.852;37.644;2022-09-09T20:19:59;5.10;;;3.22;;
39050;SDS011;24805;55.852;37.644;2022-09-09T20:25:01;7.18;;;3.40;;
39050;SDS011;24805;55.852;37.644;2022-09-09T20:30:04;8.43;;;4.63;;
39050;SDS011;24805;55.852;37.644;2022-09-09T20:35:06;8.57;;;4.28;;
39050;SDS011;24805;55.852;37.644;2022-09-09T20:45:11;7.72;;;4.43;;
39050;SDS011;24805;55.852;37.644;2022-09-09T20:50:16;9.00;;;3.70;;
39050;SDS011;24805;55.852;37.644;2022-09-09T21:00:21;35.33;;;20.50;;
39050;SDS011;24805;55.852;37.644;2022-09-09T21:05:23;12.65;;;5.95;;
39050;SDS011;24805;55.852;37.644;2022-09-09T21:10:26;15.07;;;5.35;;
39050;SDS011;24805;55.852;37.644;2022-09-09T21:20:31;13.60;;;5.78;;
39050;SDS011;24805;55.852;37.644;2022-09-09T21:30:35;14.63;;;5.37;;
39050;SDS011;24805;55.852;37.644;2022-09-09T21:35:44;12.88;;;6.13;;
39050;SDS011;24805;55.852;37.644;2022-09-09T21:40:47;15.23;;;6.68;;
39050;SDS011;24805;55.852;37.644;2022-09-09T21:45:52;18.58;;;6.68;;
39050;SDS011;24805;55.852;37.644;2022-09-09T21:56:07;14.73;;;6.03;;
39050;SDS011;24805;55.852;37.644;2022-09-09T22:01:15;17.20;;;6.93;;
39050;SDS011;24805;55.852;37.644;2022-09-09T22:06:19;21.15;;;6.70;;
39050;SDS011;24805;55.852;37.644;2022-09-09T22:11:21;16.05;;;7.28;;
39050;SDS011;24805;55.852;37.644;2022-09-09T22:16:23;26.42;;;8.50;;
39050;SDS011;24805;55.852;37.644;2022-09-09T22:21:28;17.83;;;8.02;;
39050;SDS011;24805;55.852;37.644;2022-09-09T22:26:33;16.05;;;7.57;;
39050;SDS011;24805;55.852;37.644;2022-09-09T22:31:36;18.33;;;8.48;;
39050;SDS011;24805;55.852;37.644;2022-09-09T22:36:39;18.88;;;8.85;;
39050;SDS011;24805;55.852;37.644;2022-09-09T22:41:41;21.83;;;8.93;;
39050;SDS011;24805;55.852;37.644;2022-09-09T22:51:46;33.42;;;22.33;;
39050;SDS011;24805;55.852;37.644;2022-09-09T23:01:51;35.90;;;21.88;;
39050;SDS011;24805;55.852;37.644;2022-09-09T23:06:53;31.05;;;19.13;;
39050;SDS011;24805;55.852;37.644;2022-09-09T23:11:55;25.25;;;14.77;;
39050;SDS011;24805;55.852;37.644;2022-09-09T23:16:58;31.48;;;16.45;;
39050;SDS011;24805;55.852;37.644;2022-09-09T23:27:02;26.33;;;15.18;;
39050;SDS011;24805;55.852;37.644;2022-09-09T23:32:04;33.33;;;19.38;;
39050;SDS011;24805;55.852;37.644;2022-09-09T23:37:07;28.25;;;17.60;;
39050;SDS011;24805;55.852;37.644;2022-09-09T23:42:11;31.08;;;16.52;;
39050;SDS011;24805;55.852;37.644;2022-09-09T23:47:14;27.65;;;16.70;;
39050;SDS011;24805;55.852;37.644;2022-09-09T23:57:18;35.38;;;13.80;;
